createdAt,value
2023-02-19T00:01:55.192Z,100822.78
2023-02-19T00:04:23.707Z,100815.81
2023-02-19T00:06:53.214Z,100808.75
2023-02-19T00:09:21.820Z,100815.81
2023-02-19T00:11:49.957Z,100811.41
2023-02-19T00:14:21.583Z,100798.06
2023-02-19T00:16:50.265Z,100797.38
2023-02-19T00:19:21.079Z,100797.53
2023-02-19T00:21:51.821Z,100792.19
2023-02-19T00:24:22.495Z,100795.53
2023-02-19T00:26:51.189Z,100775.03
2023-02-19T00:29:22.000Z,100774.19
2023-02-19T00:31:50.496Z,100773.22
2023-02-19T00:34:18.713Z,100759.88
2023-02-19T00:36:46.892Z,100759.88
2023-02-19T00:39:18.552Z,100771.41
2023-02-19T00:41:48.414Z,100759.78
2023-02-19T00:44:17.035Z,100759.63
2023-02-19T00:46:48.281Z,100747.13
2023-02-19T00:49:21.199Z,100750.78
2023-02-19T00:51:50.320Z,100746.28
2023-02-19T00:54:19.038Z,100730.44
2023-02-19T00:56:48.501Z,100735.03
2023-02-19T00:59:17.137Z,100726.19
2023-02-19T01:01:46.219Z,100724.66
2023-02-19T01:04:16.332Z,100715.25
2023-02-19T01:06:44.613Z,100711.91
2023-02-19T01:09:13.523Z,100707.84
2023-02-19T01:11:41.688Z,100709.97
2023-02-19T01:14:11.806Z,100715.47
2023-02-19T01:16:39.979Z,100721.06
2023-02-19T01:19:08.795Z,100723.72
2023-02-19T01:21:36.869Z,100726.56
2023-02-19T01:24:05.424Z,100714.50
2023-02-19T01:26:34.811Z,100719.28
2023-02-19T01:29:03.096Z,100724.91
2023-02-19T01:31:33.008Z,100714.53
2023-02-19T01:34:03.636Z,100736.81
2023-02-19T01:36:34.804Z,100731.50
2023-02-19T01:39:05.120Z,100732.47
2023-02-19T01:41:36.914Z,100727.41
2023-02-19T01:44:08.765Z,100732.47
2023-02-19T01:46:40.148Z,100725.56
2023-02-19T01:49:13.892Z,100713.91
2023-02-19T01:51:48.854Z,100705.66
2023-02-19T01:54:23.781Z,100704.66
2023-02-19T01:56:52.935Z,100698.50
2023-02-19T01:59:21.388Z,100707.63
2023-02-19T02:01:51.380Z,100697.09
2023-02-19T02:04:20.418Z,100684.91
2023-02-19T02:06:53.178Z,100688.53
2023-02-19T02:09:41.804Z,100690.25
2023-02-19T02:12:10.183Z,100680.84
2023-02-19T02:14:41.891Z,100681.13
2023-02-19T02:17:20.558Z,100673.13
2023-02-19T02:20:21.077Z,100672.59
2023-02-19T02:23:00.793Z,100679.75
2023-02-19T02:26:05.894Z,100671.75
2023-02-19T02:29:02.346Z,100673.00
2023-02-19T02:31:40.407Z,100673.00
2023-02-19T02:34:18.972Z,100682.31
2023-02-19T02:36:55.020Z,100680.31
2023-02-19T02:39:27.734Z,100682.13
2023-02-19T02:42:18.154Z,100675.84
2023-02-19T02:45:07.465Z,100680.75
2023-02-19T02:47:44.825Z,100684.41
2023-02-19T02:50:21.837Z,100684.25
2023-02-19T02:53:14.997Z,100685.38
2023-02-19T02:55:50.517Z,100674.84
2023-02-19T02:58:20.408Z,100668.72
2023-02-19T03:01:15.055Z,100674.16
2023-02-19T03:03:48.773Z,100667.16
2023-02-19T03:06:20.492Z,100668.16
2023-02-19T03:08:57.331Z,100663.81
2023-02-19T03:11:43.309Z,100669.13
2023-02-19T03:14:36.604Z,100652.00
2023-02-19T03:17:29.763Z,100706.16
2023-02-19T03:20:07.087Z,100706.44
2023-02-19T03:22:38.814Z,100735.56
2023-02-19T03:25:42.424Z,100741.16
2023-02-19T03:28:13.725Z,100729.84
2023-02-19T03:30:48.293Z,100740.06
2023-02-19T03:33:22.401Z,100741.59
2023-02-19T03:36:01.379Z,100749.66
2023-02-19T03:38:38.669Z,100736.63
2023-02-19T03:41:16.758Z,100743.38
2023-02-19T03:43:58.565Z,100752.34
2023-02-19T03:46:37.636Z,100739.31
2023-02-19T03:49:16.870Z,100754.97
2023-02-19T03:51:54.623Z,100755.25
2023-02-19T03:54:33.436Z,100759.72
2023-02-19T03:57:13.415Z,100767.31
2023-02-19T03:59:50.230Z,100772.75
2023-02-19T04:02:29.422Z,100771.06
2023-02-19T04:05:07.945Z,100776.81
2023-02-19T04:07:45.588Z,100784.81
2023-02-19T04:10:16.050Z,100784.56
2023-02-19T04:12:50.611Z,100791.97
2023-02-19T04:15:24.366Z,100791.63
2023-02-19T04:17:58.220Z,100796.09
2023-02-19T04:20:30.614Z,100803.97
2023-02-19T04:23:00.813Z,100806.25
2023-02-19T04:25:30.413Z,100813.69
2023-02-19T04:27:59.594Z,100830.34
2023-02-19T04:30:28.019Z,100833.41
2023-02-19T04:32:56.456Z,100838.38
2023-02-19T04:35:24.858Z,100845.19
2023-02-19T04:37:52.944Z,100850.84
2023-02-19T04:40:22.442Z,100860.63
2023-02-19T04:42:50.532Z,100856.09
2023-02-19T04:45:18.754Z,100855.81
2023-02-19T04:47:46.829Z,100861.66
2023-02-19T04:50:15.008Z,100862.19
2023-02-19T04:52:43.083Z,100870.63
2023-02-19T04:55:11.539Z,100888.25
2023-02-19T04:57:40.974Z,100888.41
2023-02-19T05:00:11.301Z,100910.25
2023-02-19T05:02:39.751Z,100927.25
2023-02-19T05:05:08.206Z,100922.59
2023-02-19T05:07:36.297Z,100939.25
2023-02-19T05:10:06.694Z,100932.34
2023-02-19T05:12:34.747Z,100949.25
2023-02-19T05:15:04.223Z,100955.97
2023-02-19T05:17:35.048Z,100960.94
2023-02-19T05:20:03.227Z,100959.72
2023-02-19T05:22:31.595Z,100961.16
2023-02-19T05:24:59.618Z,100970.69
2023-02-19T05:27:27.736Z,100971.56
2023-02-19T05:29:55.748Z,100969.84
2023-02-19T05:32:25.168Z,100975.41
2023-02-19T05:34:53.234Z,100968.28
2023-02-19T05:37:21.322Z,100973.94
2023-02-19T05:39:50.093Z,100991.53
2023-02-19T05:42:18.297Z,100989.22
2023-02-19T05:44:46.380Z,100990.91
2023-02-19T05:47:14.404Z,100987.97
2023-02-19T05:49:43.794Z,100993.66
2023-02-19T05:52:11.828Z,101005.69
2023-02-19T05:54:40.104Z,101020.19
2023-02-19T05:57:08.120Z,101017.38
2023-02-19T05:59:36.162Z,101017.81
2023-02-19T06:02:04.202Z,101037.16
2023-02-19T06:04:32.259Z,101036.72
2023-02-19T06:07:02.195Z,101045.09
2023-02-19T06:09:30.285Z,101044.25
2023-02-19T06:11:58.322Z,101055.38
2023-02-19T06:14:26.585Z,101069.41
2023-02-19T06:16:54.631Z,101074.25
2023-02-19T06:19:22.648Z,101080.09
2023-02-19T06:21:51.925Z,101092.53
2023-02-19T06:24:21.333Z,101099.75
2023-02-19T06:26:49.512Z,101105.84
2023-02-19T06:29:18.463Z,101117.53
2023-02-19T06:31:46.829Z,101128.91
2023-02-19T06:34:15.003Z,101132.44
2023-02-19T06:36:43.064Z,101131.47
2023-02-19T06:39:11.697Z,101132.03
2023-02-19T06:41:41.083Z,101131.59
2023-02-19T06:44:09.254Z,101141.34
2023-02-19T06:46:37.636Z,101151.72
2023-02-19T06:49:06.794Z,101154.13
2023-02-19T06:51:35.132Z,101160.41
2023-02-19T06:54:03.272Z,101161.88
2023-02-19T06:56:34.226Z,101171.34
2023-02-19T06:59:07.407Z,101176.84
2023-02-19T07:01:37.412Z,101189.47
2023-02-19T07:04:07.541Z,101189.91
2023-02-19T07:06:36.858Z,101205.13
2023-02-19T07:09:07.536Z,101219.13
2023-02-19T07:11:38.956Z,101226.84
2023-02-19T07:14:18.316Z,101224.75
2023-02-19T07:16:47.382Z,101231.84
2023-02-19T07:19:16.845Z,101244.56
2023-02-19T07:21:44.886Z,101251.56
2023-02-19T07:24:13.080Z,101246.88
2023-02-19T07:26:41.142Z,101261.41
2023-02-19T07:29:11.272Z,101268.41
2023-02-19T07:31:39.402Z,101280.59
2023-02-19T07:34:08.718Z,101281.34
2023-02-19T07:36:36.934Z,101295.63
2023-02-19T07:39:05.520Z,101308.03
2023-02-19T07:41:33.948Z,101314.63
2023-02-19T07:44:01.980Z,101311.53
2023-02-19T07:46:32.145Z,101314.19
2023-02-19T07:49:01.343Z,101315.47
2023-02-19T07:51:29.397Z,101314.28
2023-02-19T07:53:57.426Z,101310.81
2023-02-19T07:56:25.490Z,101315.25
2023-02-19T07:58:53.526Z,101321.00
2023-02-19T08:01:45.065Z,101310.47
2023-02-19T08:04:15.316Z,101320.69
2023-02-19T08:06:44.083Z,101327.66
2023-02-19T08:09:12.784Z,101334.53
2023-02-19T08:11:58.531Z,101331.91
2023-02-19T08:14:27.626Z,101348.25
2023-02-19T08:16:56.589Z,101360.31
2023-02-19T08:19:26.153Z,101371.44
2023-02-19T08:21:54.472Z,101367.94
2023-02-19T08:24:22.578Z,101374.09
2023-02-19T08:26:50.796Z,101375.56
2023-02-19T08:29:18.869Z,101382.59
2023-02-19T08:31:47.162Z,101390.84
2023-02-19T08:34:15.284Z,101397.84
2023-02-19T08:36:44.641Z,101403.16
2023-02-19T08:39:12.737Z,101395.53
2023-02-19T08:41:40.780Z,101400.84
2023-02-19T08:44:09.179Z,101394.47
2023-02-19T08:46:37.249Z,101397.47
2023-02-19T08:49:05.275Z,101411.44
2023-02-19T08:51:33.322Z,101409.66
2023-02-19T08:54:05.273Z,101409.22
2023-02-19T08:56:33.379Z,101402.84
2023-02-19T08:59:01.448Z,101409.88
2023-02-19T09:01:29.601Z,101417.09
2023-02-19T09:03:59.232Z,101423.03
2023-02-19T09:06:27.639Z,101423.31
2023-02-19T09:08:55.722Z,101423.75
2023-02-19T09:11:25.166Z,101417.34
2023-02-19T09:13:53.208Z,101425.53
2023-02-19T09:16:21.246Z,101427.91
2023-02-19T09:18:49.270Z,101433.28
2023-02-19T09:21:17.275Z,101448.34
2023-02-19T09:23:45.331Z,101456.53
2023-02-19T09:26:14.021Z,101460.38
2023-02-19T09:28:43.475Z,101463.03
2023-02-19T09:31:15.400Z,101475.00
2023-02-19T09:33:44.973Z,101473.84
2023-02-19T09:36:14.886Z,101463.88
2023-02-19T09:38:43.640Z,101471.31
2023-02-19T09:41:23.814Z,101476.63
2023-02-19T09:43:53.479Z,101472.47
2023-02-19T09:46:31.418Z,101469.28
2023-02-19T09:49:07.612Z,101471.72
2023-02-19T09:51:41.096Z,101472.97
2023-02-19T09:54:18.728Z,101474.13
2023-02-19T09:56:46.993Z,101489.47
2023-02-19T09:59:23.320Z,101497.66
2023-02-19T10:02:02.334Z,101513.50
2023-02-19T10:04:30.420Z,101516.81
2023-02-19T10:07:03.618Z,101526.56
2023-02-19T10:09:32.504Z,101522.00
2023-02-19T10:12:01.699Z,101536.03
2023-02-19T10:14:37.653Z,101543.16
2023-02-19T10:17:08.031Z,101551.34
2023-02-19T10:19:37.574Z,101556.53
2023-02-19T10:22:06.087Z,101553.06
2023-02-19T10:24:34.131Z,101548.53
2023-02-19T10:27:02.223Z,101555.31
2023-02-19T10:29:30.249Z,101569.34
2023-02-19T10:32:23.958Z,101585.69
2023-02-19T10:35:12.158Z,101592.94
2023-02-19T10:37:45.927Z,101595.00
2023-02-19T10:40:19.040Z,101598.28
2023-02-19T10:42:49.154Z,101612.22
2023-02-19T10:45:25.204Z,101615.47
2023-02-19T10:47:54.793Z,101619.72
2023-02-19T10:50:30.696Z,101622.91
2023-02-19T10:53:01.910Z,101619.25
2023-02-19T10:55:36.734Z,101615.03
2023-02-19T10:58:26.818Z,101605.66
2023-02-19T11:01:21.364Z,101610.66
2023-02-19T11:03:52.695Z,101608.66
2023-02-19T11:06:27.990Z,101610.78
2023-02-19T11:09:00.760Z,101604.03
2023-02-19T11:11:36.179Z,101604.25
2023-02-19T11:14:15.311Z,101606.28
2023-02-19T11:16:47.629Z,101612.72
2023-02-19T11:19:32.658Z,101613.34
2023-02-19T11:22:02.597Z,101609.00
2023-02-19T11:24:37.120Z,101606.63
2023-02-19T11:27:15.245Z,101612.44
2023-02-19T11:29:43.314Z,101618.31
2023-02-19T11:32:29.299Z,101627.59
2023-02-19T11:35:23.569Z,101622.69
2023-02-19T11:38:00.550Z,101619.47
2023-02-19T11:40:41.416Z,101616.47
2023-02-19T11:43:34.276Z,101613.81
2023-02-19T11:46:14.934Z,101625.94
2023-02-19T11:48:56.925Z,101623.94
2023-02-19T11:52:04.139Z,101620.78
2023-02-19T11:54:56.025Z,101617.19
2023-02-19T11:57:42.713Z,101619.91
2023-02-19T12:00:27.870Z,101618.81
2023-02-19T12:03:45.097Z,101616.56
2023-02-19T12:06:29.585Z,101613.91
2023-02-19T12:09:27.010Z,101621.66
2023-02-19T12:12:25.218Z,101614.34
2023-02-19T12:15:18.018Z,101613.63
2023-02-19T12:18:30.353Z,101616.63
2023-02-19T12:21:16.589Z,101619.53
2023-02-19T12:24:06.273Z,101617.31
2023-02-19T12:26:47.752Z,101615.88
2023-02-19T12:29:51.532Z,101620.69
2023-02-19T12:32:57.584Z,101623.63
2023-02-19T12:35:45.854Z,101631.06
2023-02-19T12:38:24.261Z,101639.56
2023-02-19T12:41:13.721Z,101633.50
2023-02-19T12:43:53.128Z,101642.59
2023-02-19T12:46:29.021Z,101640.06
2023-02-19T12:49:06.753Z,101650.97
2023-02-19T12:51:44.759Z,101646.50
2023-02-19T12:54:24.650Z,101653.09
2023-02-19T12:57:02.779Z,101645.41
2023-02-19T12:59:42.088Z,101653.03
2023-02-19T13:02:21.985Z,101656.81
2023-02-19T13:04:59.640Z,101661.13
2023-02-19T13:07:36.522Z,101665.00
2023-02-19T13:10:26.719Z,101658.31
2023-02-19T13:12:59.450Z,101659.59
2023-02-19T13:15:37.777Z,101669.16
2023-02-19T13:18:15.360Z,101665.34
2023-02-19T13:20:46.529Z,101656.63
2023-02-19T13:23:39.686Z,101665.50
2023-02-19T13:26:53.011Z,101669.44
2023-02-19T13:29:52.969Z,101666.84
2023-02-19T13:32:54.452Z,101668.28
2023-02-19T13:36:06.066Z,101661.72
2023-02-19T13:38:39.451Z,101659.00
2023-02-19T13:41:18.297Z,101654.78
2023-02-19T13:43:47.486Z,101654.06
2023-02-19T13:46:18.426Z,101648.66
2023-02-19T13:48:48.007Z,101638.69
2023-02-19T13:51:51.092Z,101637.59
2023-02-19T13:54:29.275Z,101632.28
2023-02-19T13:57:28.597Z,101637.13
2023-02-19T13:59:58.934Z,101634.53
2023-02-19T14:02:33.163Z,101638.75
2023-02-19T14:05:07.880Z,101635.34
2023-02-19T14:07:54.636Z,101634.91
2023-02-19T14:11:02.313Z,101635.44
2023-02-19T14:14:01.548Z,101622.78
2023-02-19T14:17:01.069Z,101639.75
2023-02-19T14:20:05.401Z,101645.72
2023-02-19T14:23:16.133Z,101650.19
2023-02-19T14:25:53.578Z,101655.53
2023-02-19T14:28:30.375Z,101666.25
2023-02-19T14:31:03.256Z,101666.13
2023-02-19T14:33:37.520Z,101664.81
2023-02-19T14:36:17.339Z,101659.97
2023-02-19T14:38:51.461Z,101658.63
2023-02-19T14:41:22.939Z,101662.84
2023-02-19T14:43:54.810Z,101677.19
2023-02-19T14:46:32.339Z,101671.72
2023-02-19T14:49:08.287Z,101676.94
2023-02-19T14:51:44.038Z,101671.44
2023-02-19T14:54:18.514Z,101676.69
2023-02-19T14:56:52.700Z,101688.81
2023-02-19T14:59:28.586Z,101682.72
2023-02-19T15:02:00.655Z,101675.41
2023-02-19T15:04:36.630Z,101671.03
2023-02-19T15:07:14.386Z,101661.28
2023-02-19T15:09:47.852Z,101659.59
2023-02-19T15:12:20.835Z,101653.75
2023-02-19T15:14:52.802Z,101655.34
2023-02-19T15:17:28.882Z,101671.03
2023-02-19T15:20:03.039Z,101668.41
2023-02-19T15:22:34.021Z,101661.09
2023-02-19T15:25:03.075Z,101663.53
2023-02-19T15:27:32.815Z,101667.91
2023-02-19T15:30:00.994Z,101657.47
2023-02-19T15:32:29.497Z,101656.28
2023-02-19T15:35:00.718Z,101660.41
2023-02-19T15:37:34.397Z,101656.31
2023-02-19T15:40:07.667Z,101656.81
2023-02-19T15:42:38.088Z,101666.00
2023-02-19T15:45:18.601Z,101660.19
2023-02-19T15:47:52.132Z,101653.41
2023-02-19T15:50:26.542Z,101653.88
2023-02-19T15:53:04.523Z,101644.91
2023-02-19T15:55:41.126Z,101659.06
2023-02-19T15:58:18.560Z,101648.28
2023-02-19T16:00:51.516Z,101651.19
2023-02-19T16:03:22.944Z,101657.38
2023-02-19T16:06:01.720Z,101652.63
2023-02-19T16:08:33.328Z,101638.81
2023-02-19T16:11:05.121Z,101641.00
2023-02-19T16:13:36.069Z,101646.78
2023-02-19T16:16:16.187Z,101652.34
2023-02-19T16:18:47.580Z,101668.78
2023-02-19T16:21:21.524Z,101662.91
2023-02-19T16:23:59.114Z,101674.94
2023-02-19T16:26:27.982Z,101672.41
2023-02-19T16:28:57.628Z,101684.34
2023-02-19T16:31:25.821Z,101686.44
2023-02-19T16:33:54.004Z,101684.47
2023-02-19T16:36:36.931Z,101688.84
2023-02-19T16:39:24.666Z,101690.88
2023-02-19T16:42:18.113Z,101699.63
2023-02-19T16:44:49.945Z,101703.94
2023-02-19T16:47:32.512Z,101694.06
2023-02-19T16:50:08.056Z,101695.47
2023-02-19T16:52:38.951Z,101700.69
2023-02-19T16:55:14.497Z,101704.31
2023-02-19T16:57:42.512Z,101721.56
2023-02-19T17:00:17.768Z,101719.75
2023-02-19T17:02:48.265Z,101724.34
2023-02-19T17:05:18.818Z,101733.50
2023-02-19T17:07:47.074Z,101732.00
2023-02-19T17:10:19.537Z,101729.09
2023-02-19T17:12:47.780Z,101735.44
2023-02-19T17:15:16.320Z,101736.84
2023-02-19T17:17:44.509Z,101739.09
2023-02-19T17:20:23.939Z,101731.75
2023-02-19T17:22:52.125Z,101742.16
2023-02-19T17:25:21.574Z,101737.50
2023-02-19T17:27:49.780Z,101731.44
2023-02-19T17:30:26.701Z,101743.44
2023-02-19T17:32:54.799Z,101736.44
2023-02-19T17:35:22.892Z,101739.28
2023-02-19T17:37:53.301Z,101735.78
2023-02-19T17:40:33.266Z,101731.41
2023-02-19T17:43:01.921Z,101727.91
2023-02-19T17:45:30.064Z,101726.22
2023-02-19T17:47:58.275Z,101722.72
2023-02-19T17:50:29.560Z,101720.69
2023-02-19T17:52:57.788Z,101724.22
2023-02-19T17:55:28.092Z,101725.38
2023-02-19T17:57:56.297Z,101717.69
2023-02-19T18:00:27.228Z,101714.31
2023-02-19T18:02:56.317Z,101725.25
2023-02-19T18:05:25.406Z,101721.94
2023-02-19T18:07:53.583Z,101731.91
2023-02-19T18:10:24.318Z,101734.78
2023-02-19T18:12:54.081Z,101742.31
2023-02-19T18:15:26.800Z,101738.72
2023-02-19T18:17:56.070Z,101741.47
2023-02-19T18:20:27.657Z,101741.66
2023-02-19T18:22:57.932Z,101749.72
2023-02-19T18:25:26.575Z,101745.69
2023-02-19T18:27:56.358Z,101759.09
2023-02-19T18:30:24.776Z,101752.78
2023-02-19T18:32:53.071Z,101756.31
2023-02-19T18:35:22.180Z,101760.03
2023-02-19T18:37:53.039Z,101752.16
2023-02-19T18:40:21.756Z,101763.09
2023-02-19T18:42:50.267Z,101763.31
2023-02-19T18:45:19.915Z,101760.94
2023-02-19T18:47:48.767Z,101756.38
2023-02-19T18:50:18.154Z,101761.03
2023-02-19T18:52:46.260Z,101767.97
2023-02-19T18:55:14.342Z,101767.31
2023-02-19T18:57:42.594Z,101769.97
2023-02-19T19:00:17.353Z,101772.03
2023-02-19T19:02:49.745Z,101773.00
2023-02-19T19:05:22.993Z,101781.94
2023-02-19T19:07:52.544Z,101787.22
2023-02-19T19:10:22.092Z,101779.16
2023-02-19T19:12:50.372Z,101789.13
2023-02-19T19:15:19.441Z,101782.28
2023-02-19T19:17:50.280Z,101786.66
2023-02-19T19:20:20.064Z,101785.72
2023-02-19T19:22:50.956Z,101772.94
2023-02-19T19:25:19.588Z,101773.59
2023-02-19T19:27:50.307Z,101771.88
2023-02-19T19:30:19.983Z,101771.03
2023-02-19T19:32:52.110Z,101770.56
2023-02-19T19:35:23.021Z,101759.41
2023-02-19T19:37:51.394Z,101763.97
2023-02-19T19:40:20.443Z,101762.16
2023-02-19T19:42:51.302Z,101759.41
2023-02-19T19:45:19.782Z,101769.25
2023-02-19T19:47:49.993Z,101766.06
2023-02-19T19:50:19.228Z,101770.44
2023-02-19T19:52:47.264Z,101764.16
2023-02-19T19:55:16.165Z,101769.56
2023-02-19T19:57:44.554Z,101765.50
2023-02-19T20:00:17.736Z,101764.75
2023-02-19T20:02:46.822Z,101742.97
2023-02-19T20:05:16.950Z,101743.72
2023-02-19T20:07:45.366Z,101745.44
2023-02-19T20:10:15.938Z,101741.16
2023-02-19T20:12:44.403Z,101731.41
2023-02-19T20:15:13.255Z,101733.31
2023-02-19T20:17:41.371Z,101736.91
2023-02-19T20:20:11.161Z,101736.19
2023-02-19T20:22:40.749Z,101740.31
2023-02-19T20:25:09.184Z,101743.06
2023-02-19T20:27:37.312Z,101756.22
2023-02-19T20:30:07.076Z,101754.53
2023-02-19T20:32:35.953Z,101741.38
2023-02-19T20:35:03.993Z,101733.53
2023-02-19T20:37:32.079Z,101742.41
2023-02-19T20:40:01.498Z,101749.44
2023-02-19T20:42:29.527Z,101746.00
2023-02-19T20:44:57.714Z,101749.59
2023-02-19T20:47:25.768Z,101760.88
2023-02-19T20:49:53.873Z,101760.88
2023-02-19T20:52:22.131Z,101755.69
2023-02-19T20:54:50.179Z,101758.41
2023-02-19T20:57:19.608Z,101756.81
2023-02-19T20:59:47.688Z,101756.81
2023-02-19T21:02:21.179Z,101750.97
2023-02-19T21:04:49.504Z,101753.63
2023-02-19T21:07:18.099Z,101740.66
2023-02-19T21:09:46.199Z,101738.00
2023-02-19T21:12:14.263Z,101743.38
2023-02-19T21:14:43.948Z,101739.78
2023-02-19T21:17:12.099Z,101732.13
2023-02-19T21:19:40.260Z,101727.66
2023-02-19T21:22:08.610Z,101732.97
2023-02-19T21:24:37.115Z,101737.53
2023-02-19T21:27:05.616Z,101734.69
2023-02-19T21:29:33.711Z,101726.72
2023-02-19T21:32:03.276Z,101722.28
2023-02-19T21:34:31.392Z,101720.47
2023-02-19T21:36:59.810Z,101721.31
2023-02-19T21:39:31.102Z,101723.13
2023-02-19T21:42:00.127Z,101727.28
2023-02-19T21:44:28.167Z,101735.06
2023-02-19T21:46:56.325Z,101733.22
2023-02-19T21:49:25.753Z,101736.84
2023-02-19T21:51:54.127Z,101724.53
2023-02-19T21:54:26.440Z,101723.69
2023-02-19T21:56:55.802Z,101713.06
2023-02-19T21:59:24.392Z,101721.88
2023-02-19T22:01:52.471Z,101721.03
2023-02-19T22:04:24.472Z,101721.03
2023-02-19T22:06:57.189Z,101726.34
2023-02-19T22:09:25.433Z,101720.28
2023-02-19T22:11:53.511Z,101715.72
2023-02-19T22:14:21.588Z,101723.47
2023-02-19T22:16:49.693Z,101714.66
2023-02-19T22:19:17.708Z,101724.44
2023-02-19T22:21:46.340Z,101730.28
2023-02-19T22:24:22.230Z,101722.25
2023-02-19T22:26:51.490Z,101728.38
2023-02-19T22:29:19.550Z,101732.88
2023-02-19T22:31:47.861Z,101723.09
2023-02-19T22:34:17.324Z,101717.78
2023-02-19T22:36:45.805Z,101706.44
2023-02-19T22:39:21.397Z,101703.78
2023-02-19T22:41:50.193Z,101703.97
2023-02-19T22:44:19.424Z,101697.94
2023-02-19T22:46:51.504Z,101696.22
2023-02-19T22:49:21.507Z,101710.53
2023-02-19T22:51:54.517Z,101709.69
2023-02-19T22:54:26.811Z,101711.38
2023-02-19T22:56:55.573Z,101713.19
2023-02-19T22:59:24.139Z,101694.72
2023-02-19T23:01:52.739Z,101695.66
2023-02-19T23:04:22.606Z,101688.47
2023-02-19T23:06:51.299Z,101675.09
2023-02-19T23:09:24.663Z,101671.31
2023-02-19T23:11:54.142Z,101672.91
2023-02-19T23:14:24.268Z,101685.22
2023-02-19T23:16:52.356Z,101678.97
2023-02-19T23:19:20.426Z,101676.19
2023-02-19T23:21:48.642Z,101684.94
2023-02-19T23:24:17.782Z,101672.41
2023-02-19T23:26:49.639Z,101678.56
2023-02-19T23:29:20.953Z,101673.06
2023-02-19T23:31:49.134Z,101679.31
2023-02-19T23:34:18.350Z,101677.44
2023-02-19T23:36:48.800Z,101682.72
2023-02-19T23:39:20.300Z,101674.84
2023-02-19T23:41:52.536Z,101671.34
2023-02-19T23:44:21.976Z,101674.00
2023-02-19T23:46:51.435Z,101677.44
2023-02-19T23:49:20.875Z,101678.16
2023-02-19T23:51:49.036Z,101681.69
2023-02-19T23:54:17.180Z,101670.97
2023-02-19T23:56:45.413Z,101670.78
2023-02-19T23:59:15.459Z,101674.16
